sensor_id;sensor_type;location;lat;lon;timestamp;pressure;altitude;pressure_sealevel;temperature;humidity
35918;BME280;22011;59.912;30.300;2023-02-17T00:01:36;101536.44;;;-0.70;60.48
35918;BME280;22011;59.912;30.300;2023-02-17T00:04:04;101528.03;;;-0.76;59.31
35918;BME280;22011;59.912;30.300;2023-02-17T00:06:31;101527.28;;;-0.78;59.82
35918;BME280;22011;59.912;30.300;2023-02-17T00:09:00;101538.72;;;-0.81;59.68
35918;BME280;22011;59.912;30.300;2023-02-17T00:11:28;101531.66;;;-0.79;59.72
35918;BME280;22011;59.912;30.300;2023-02-17T00:13:56;101529.03;;;-0.79;59.60
35918;BME280;22011;59.912;30.300;2023-02-17T00:16:25;101527.97;;;-0.75;60.33
35918;BME280;22011;59.912;30.300;2023-02-17T00:18:55;101533.59;;;-0.65;60.03
35918;BME280;22011;59.912;30.300;2023-02-17T00:21:24;101534.59;;;-0.68;59.38
35918;BME280;22011;59.912;30.300;2023-02-17T00:23:53;101522.03;;;-0.78;59.56
35918;BME280;22011;59.912;30.300;2023-02-17T00:26:22;101530.66;;;-0.76;59.91
35918;BME280;22011;59.912;30.300;2023-02-17T00:28:49;101526.13;;;-0.73;60.74
35918;BME280;22011;59.912;30.300;2023-02-17T00:31:19;101521.59;;;-0.69;61.18
35918;BME280;22011;59.912;30.300;2023-02-17T00:33:47;101519.81;;;-0.69;60.70
35918;BME280;22011;59.912;30.300;2023-02-17T00:36:16;101514.66;;;-0.70;60.21
35918;BME280;22011;59.912;30.300;2023-02-17T00:38:45;101515.59;;;-0.71;59.32
35918;BME280;22011;59.912;30.300;2023-02-17T00:41:14;101515.38;;;-0.67;59.27
35918;BME280;22011;59.912;30.300;2023-02-17T00:43:43;101515.22;;;-0.63;59.47
35918;BME280;22011;59.912;30.300;2023-02-17T00:46:11;101506.75;;;-0.69;59.31
35918;BME280;22011;59.912;30.300;2023-02-17T00:48:38;101501.50;;;-0.69;59.48
35918;BME280;22011;59.912;30.300;2023-02-17T00:51:07;101501.50;;;-0.69;59.34
35918;BME280;22011;59.912;30.300;2023-02-17T00:53:35;101494.56;;;-0.70;58.88
35918;BME280;22011;59.912;30.300;2023-02-17T00:56:03;101498.97;;;-0.70;58.89
35918;BME280;22011;59.912;30.300;2023-02-17T00:58:31;101498.34;;;-0.75;59.04
35918;BME280;22011;59.912;30.300;2023-02-17T01:01:00;101488.03;;;-0.78;59.81
35918;BME280;22011;59.912;30.300;2023-02-17T01:03:27;101482.03;;;-0.80;59.48
35918;BME280;22011;59.912;30.300;2023-02-17T01:05:55;101482.72;;;-0.77;58.90
35918;BME280;22011;59.912;30.300;2023-02-17T01:08:23;101476.50;;;-0.74;58.96
35918;BME280;22011;59.912;30.300;2023-02-17T01:10:51;101476.63;;;-0.77;58.71
35918;BME280;22011;59.912;30.300;2023-02-17T01:13:19;101478.00;;;-0.87;58.98
35918;BME280;22011;59.912;30.300;2023-02-17T01:15:50;101471.16;;;-0.90;58.83
35918;BME280;22011;59.912;30.300;2023-02-17T01:18:22;101466.91;;;-0.92;59.26
35918;BME280;22011;59.912;30.300;2023-02-17T01:20:51;101467.00;;;-0.94;59.38
35918;BME280;22011;59.912;30.300;2023-02-17T01:23:19;101465.69;;;-0.85;59.85
35918;BME280;22011;59.912;30.300;2023-02-17T01:25:47;101468.38;;;-0.87;58.97
35918;BME280;22011;59.912;30.300;2023-02-17T01:28:18;101458.91;;;-0.89;59.28
35918;BME280;22011;59.912;30.300;2023-02-17T01:30:46;101458.31;;;-0.94;59.55
35918;BME280;22011;59.912;30.300;2023-02-17T01:33:14;101473.84;;;-0.91;59.79
35918;BME280;22011;59.912;30.300;2023-02-17T01:35:43;101469.47;;;-0.91;59.73
35918;BME280;22011;59.912;30.300;2023-02-17T01:38:11;101470.31;;;-0.90;59.38
35918;BME280;22011;59.912;30.300;2023-02-17T01:40:45;101465.56;;;-0.82;60.15
35918;BME280;22011;59.912;30.300;2023-02-17T01:43:15;101470.94;;;-0.85;59.79
35918;BME280;22011;59.912;30.300;2023-02-17T01:45:45;101461.38;;;-0.86;59.52
35918;BME280;22011;59.912;30.300;2023-02-17T01:48:18;101461.69;;;-0.92;60.24
35918;BME280;22011;59.912;30.300;2023-02-17T01:50:53;101459.84;;;-0.90;60.62
35918;BME280;22011;59.912;30.300;2023-02-17T01:53:24;101452.16;;;-0.93;61.04
35918;BME280;22011;59.912;30.300;2023-02-17T01:55:55;101450.31;;;-0.91;59.72
35918;BME280;22011;59.912;30.300;2023-02-17T01:58:23;101456.31;;;-0.89;59.16
35918;BME280;22011;59.912;30.300;2023-02-17T02:00:55;101456.31;;;-0.89;60.10
35918;BME280;22011;59.912;30.300;2023-02-17T02:03:26;101447.69;;;-0.91;59.87
35918;BME280;22011;59.912;30.300;2023-02-17T02:05:56;101451.78;;;-0.86;60.20
35918;BME280;22011;59.912;30.300;2023-02-17T02:08:27;101454.47;;;-0.87;60.06
35918;BME280;22011;59.912;30.300;2023-02-17T02:10:56;101443.31;;;-0.91;59.23
35918;BME280;22011;59.912;30.300;2023-02-17T02:13:23;101438.53;;;-1.00;59.66
35918;BME280;22011;59.912;30.300;2023-02-17T02:15:58;101445.06;;;-0.91;60.23
35918;BME280;22011;59.912;30.300;2023-02-17T02:18:40;101433.97;;;-0.96;59.77
35918;BME280;22011;59.912;30.300;2023-02-17T02:21:45;101435.81;;;-0.99;59.49
35918;BME280;22011;59.912;30.300;2023-02-17T02:24:25;101426.69;;;-1.07;59.36
35918;BME280;22011;59.912;30.300;2023-02-17T02:27:39;101421.69;;;-0.94;60.14
35918;BME280;22011;59.912;30.300;2023-02-17T02:33:14;101424.16;;;-1.09;59.16
35918;BME280;22011;59.912;30.300;2023-02-17T02:35:49;101425.06;;;-1.10;59.07
35918;BME280;22011;59.912;30.300;2023-02-17T02:38:22;101420.75;;;-1.11;59.64
35918;BME280;22011;59.912;30.300;2023-02-17T02:40:56;101414.63;;;-1.10;58.95
35918;BME280;22011;59.912;30.300;2023-02-17T02:43:26;101416.91;;;-1.21;58.32
35918;BME280;22011;59.912;30.300;2023-02-17T02:45:54;101410.34;;;-1.29;58.32
35918;BME280;22011;59.912;30.300;2023-02-17T02:48:23;101404.03;;;-1.25;58.75
35918;BME280;22011;59.912;30.300;2023-02-17T02:51:00;101410.91;;;-1.23;58.73
35918;BME280;22011;59.912;30.300;2023-02-17T02:54:01;101399.53;;;-1.22;59.15
35918;BME280;22011;59.912;30.300;2023-02-17T02:56:45;101393.81;;;-1.30;59.59
35918;BME280;22011;59.912;30.300;2023-02-17T02:59:22;101393.13;;;-1.34;59.24
35918;BME280;22011;59.912;30.300;2023-02-17T03:02:01;101386.13;;;-1.33;59.19
35918;BME280;22011;59.912;30.300;2023-02-17T03:04:35;101389.94;;;-1.40;58.75
35918;BME280;22011;59.912;30.300;2023-02-17T03:07:09;101385.63;;;-1.41;58.80
35918;BME280;22011;59.912;30.300;2023-02-17T03:09:37;101378.88;;;-1.45;58.96
35918;BME280;22011;59.912;30.300;2023-02-17T03:12:06;101383.16;;;-1.44;58.72
35918;BME280;22011;59.912;30.300;2023-02-17T03:14:35;101382.94;;;-1.40;58.21
35918;BME280;22011;59.912;30.300;2023-02-17T03:17:04;101374.16;;;-1.20;58.83
35918;BME280;22011;59.912;30.300;2023-02-17T03:19:33;101381.97;;;-1.37;58.57
35918;BME280;22011;59.912;30.300;2023-02-17T03:22:06;101380.81;;;-1.32;59.16
35918;BME280;22011;59.912;30.300;2023-02-17T03:24:34;101384.50;;;-1.36;58.44
35918;BME280;22011;59.912;30.300;2023-02-17T03:27:05;101388.03;;;-1.37;58.10
35918;BME280;22011;59.912;30.300;2023-02-17T03:29:33;101385.34;;;-1.35;57.94
35918;BME280;22011;59.912;30.300;2023-02-17T03:32:01;101382.44;;;-1.29;58.59
35918;BME280;22011;59.912;30.300;2023-02-17T03:34:28;101385.19;;;-1.32;58.40
35918;BME280;22011;59.912;30.300;2023-02-17T03:36:57;101382.38;;;-1.27;58.74
35918;BME280;22011;59.912;30.300;2023-02-17T03:39:25;101377.44;;;-1.34;57.75
35918;BME280;22011;59.912;30.300;2023-02-17T03:41:53;101379.34;;;-1.37;58.15
35918;BME280;22011;59.912;30.300;2023-02-17T03:44:20;101378.34;;;-1.35;58.19
35918;BME280;22011;59.912;30.300;2023-02-17T03:46:48;101376.34;;;-1.29;58.08
35918;BME280;22011;59.912;30.300;2023-02-17T03:49:15;101388.38;;;-1.25;58.18
35918;BME280;22011;59.912;30.300;2023-02-17T03:51:43;101376.97;;;-1.24;58.50
35918;BME280;22011;59.912;30.300;2023-02-17T03:54:12;101381.13;;;-1.20;58.52
35918;BME280;22011;59.912;30.300;2023-02-17T03:56:39;101374.44;;;-1.26;58.78
35918;BME280;22011;59.912;30.300;2023-02-17T03:59:07;101377.91;;;-1.25;58.44
35918;BME280;22011;59.912;30.300;2023-02-17T04:01:34;101378.69;;;-1.23;58.05
35918;BME280;22011;59.912;30.300;2023-02-17T04:04:02;101362.44;;;-1.30;58.59
35918;BME280;22011;59.912;30.300;2023-02-17T04:06:30;101353.59;;;-1.27;58.69
35918;BME280;22011;59.912;30.300;2023-02-17T04:08:58;101349.91;;;-1.23;58.34
35918;BME280;22011;59.912;30.300;2023-02-17T04:11:26;101352.38;;;-1.20;58.19
35918;BME280;22011;59.912;30.300;2023-02-17T04:13:54;101353.53;;;-1.26;57.70
35918;BME280;22011;59.912;30.300;2023-02-17T04:16:21;101346.84;;;-1.32;58.12
35918;BME280;22011;59.912;30.300;2023-02-17T04:18:49;101340.97;;;-1.37;57.82
35918;BME280;22011;59.912;30.300;2023-02-17T04:21:16;101338.28;;;-1.35;58.05
35918;BME280;22011;59.912;30.300;2023-02-17T04:23:44;101341.84;;;-1.36;57.58
35918;BME280;22011;59.912;30.300;2023-02-17T04:26:11;101333.84;;;-1.33;58.63
35918;BME280;22011;59.912;30.300;2023-02-17T04:28:41;101330.84;;;-1.25;58.09
35918;BME280;22011;59.912;30.300;2023-02-17T04:31:09;101342.16;;;-1.25;57.91
35918;BME280;22011;59.912;30.300;2023-02-17T04:33:36;101333.22;;;-1.21;57.59
35918;BME280;22011;59.912;30.300;2023-02-17T04:36:04;101342.91;;;-1.23;57.47
35918;BME280;22011;59.912;30.300;2023-02-17T04:38:32;101335.38;;;-1.29;58.80
35918;BME280;22011;59.912;30.300;2023-02-17T04:41:00;101336.59;;;-1.36;58.23
35918;BME280;22011;59.912;30.300;2023-02-17T04:43:28;101338.75;;;-1.44;58.34
35918;BME280;22011;59.912;30.300;2023-02-17T04:45:57;101333.81;;;-1.50;58.76
35918;BME280;22011;59.912;30.300;2023-02-17T04:48:25;101338.34;;;-1.54;59.17
35918;BME280;22011;59.912;30.300;2023-02-17T04:50:53;101328.72;;;-1.53;59.48
35918;BME280;22011;59.912;30.300;2023-02-17T04:53:20;101332.13;;;-1.51;59.92
35918;BME280;22011;59.912;30.300;2023-02-17T04:55:48;101334.50;;;-1.47;59.10
35918;BME280;22011;59.912;30.300;2023-02-17T04:58:17;101333.50;;;-1.44;58.70
35918;BME280;22011;59.912;30.300;2023-02-17T05:00:46;101330.91;;;-1.44;58.45
35918;BME280;22011;59.912;30.300;2023-02-17T05:03:15;101326.28;;;-1.39;59.10
35918;BME280;22011;59.912;30.300;2023-02-17T05:05:42;101330.91;;;-1.44;59.39
35918;BME280;22011;59.912;30.300;2023-02-17T05:08:10;101325.38;;;-1.38;59.04
35918;BME280;22011;59.912;30.300;2023-02-17T05:10:37;101327.06;;;-1.37;59.74
35918;BME280;22011;59.912;30.300;2023-02-17T05:13:05;101321.22;;;-1.42;59.53
35918;BME280;22011;59.912;30.300;2023-02-17T05:15:32;101317.69;;;-1.41;60.36
35918;BME280;22011;59.912;30.300;2023-02-17T05:18:00;101324.59;;;-1.40;61.23
35918;BME280;22011;59.912;30.300;2023-02-17T05:20:29;101320.91;;;-1.36;61.59
35918;BME280;22011;59.912;30.300;2023-02-17T05:22:57;101327.84;;;-1.35;60.71
35918;BME280;22011;59.912;30.300;2023-02-17T05:25:24;101331.22;;;-1.33;60.44
35918;BME280;22011;59.912;30.300;2023-02-17T05:27:52;101320.00;;;-1.35;60.44
35918;BME280;22011;59.912;30.300;2023-02-17T05:30:20;101323.13;;;-1.46;60.71
35918;BME280;22011;59.912;30.300;2023-02-17T05:32:47;101323.19;;;-1.65;61.66
35918;BME280;22011;59.912;30.300;2023-02-17T05:35:15;101318.38;;;-1.74;62.64
35918;BME280;22011;59.912;30.300;2023-02-17T05:37:44;101320.00;;;-1.71;62.99
35918;BME280;22011;59.912;30.300;2023-02-17T05:40:11;101321.78;;;-1.72;64.39
35918;BME280;22011;59.912;30.300;2023-02-17T05:42:39;101314.00;;;-1.73;63.78
35918;BME280;22011;59.912;30.300;2023-02-17T05:45:07;101310.16;;;-1.83;64.46
35918;BME280;22011;59.912;30.300;2023-02-17T05:47:35;101313.31;;;-1.77;65.21
35918;BME280;22011;59.912;30.300;2023-02-17T05:50:03;101307.66;;;-1.68;64.77
35918;BME280;22011;59.912;30.300;2023-02-17T05:52:31;101302.34;;;-1.66;65.07
35918;BME280;22011;59.912;30.300;2023-02-17T05:55:00;101311.94;;;-1.67;65.12
35918;BME280;22011;59.912;30.300;2023-02-17T05:57:28;101316.06;;;-1.80;65.24
35918;BME280;22011;59.912;30.300;2023-02-17T05:59:55;101307.53;;;-1.83;64.98
35918;BME280;22011;59.912;30.300;2023-02-17T06:02:23;101307.59;;;-1.85;65.19
35918;BME280;22011;59.912;30.300;2023-02-17T06:04:50;101315.28;;;-1.82;66.94
35918;BME280;22011;59.912;30.300;2023-02-17T06:07:18;101309.16;;;-1.81;65.37
35918;BME280;22011;59.912;30.300;2023-02-17T06:09:45;101313.53;;;-1.81;65.61
35918;BME280;22011;59.912;30.300;2023-02-17T06:12:14;101308.22;;;-1.80;66.13
35918;BME280;22011;59.912;30.300;2023-02-17T06:14:42;101310.16;;;-1.83;66.11
35918;BME280;22011;59.912;30.300;2023-02-17T06:17:09;101303.16;;;-1.83;66.48
35918;BME280;22011;59.912;30.300;2023-02-17T06:19:37;101299.78;;;-1.85;66.27
35918;BME280;22011;59.912;30.300;2023-02-17T06:22:04;101294.69;;;-1.88;66.57
35918;BME280;22011;59.912;30.300;2023-02-17T06:24:32;101295.25;;;-1.81;66.70
35918;BME280;22011;59.912;30.300;2023-02-17T06:27:00;101291.63;;;-1.79;67.68
35918;BME280;22011;59.912;30.300;2023-02-17T06:29:29;101290.72;;;-1.78;66.80
35918;BME280;22011;59.912;30.300;2023-02-17T06:31:57;101287.25;;;-1.78;67.54
35918;BME280;22011;59.912;30.300;2023-02-17T06:34:24;101288.81;;;-1.74;67.57
35918;BME280;22011;59.912;30.300;2023-02-17T06:36:52;101292.47;;;-1.78;67.09
35918;BME280;22011;59.912;30.300;2023-02-17T06:39:20;101289.31;;;-1.85;67.47
35918;BME280;22011;59.912;30.300;2023-02-17T06:41:49;101293.63;;;-1.84;67.51
35918;BME280;22011;59.912;30.300;2023-02-17T06:44:16;101300.41;;;-1.80;68.31
35918;BME280;22011;59.912;30.300;2023-02-17T06:46:45;101303.63;;;-1.75;67.42
35918;BME280;22011;59.912;30.300;2023-02-17T06:49:13;101300.09;;;-1.74;67.50
35918;BME280;22011;59.912;30.300;2023-02-17T06:51:41;101287.81;;;-1.72;67.32
35918;BME280;22011;59.912;30.300;2023-02-17T06:54:08;101296.56;;;-1.73;67.14
35918;BME280;22011;59.912;30.300;2023-02-17T06:56:36;101275.81;;;-1.76;66.35
35918;BME280;22011;59.912;30.300;2023-02-17T06:59:03;101278.44;;;-1.76;67.23
35918;BME280;22011;59.912;30.300;2023-02-17T07:01:31;101285.50;;;-1.78;66.81
35918;BME280;22011;59.912;30.300;2023-02-17T07:04:00;101283.44;;;-1.71;67.22
35918;BME280;22011;59.912;30.300;2023-02-17T07:06:27;101275.66;;;-1.73;66.48
35918;BME280;22011;59.912;30.300;2023-02-17T07:08:55;101276.75;;;-1.77;66.88
35918;BME280;22011;59.912;30.300;2023-02-17T07:11:22;101283.81;;;-1.79;67.13
35918;BME280;22011;59.912;30.300;2023-02-17T07:13:51;101275.03;;;-1.78;66.72
35918;BME280;22011;59.912;30.300;2023-02-17T07:16:18;101276.81;;;-1.78;66.47
35918;BME280;22011;59.912;30.300;2023-02-17T07:18:46;101266.28;;;-1.77;65.99
35918;BME280;22011;59.912;30.300;2023-02-17T07:21:15;101273.84;;;-1.71;65.90
35918;BME280;22011;59.912;30.300;2023-02-17T07:23:42;101273.69;;;-1.68;66.73
35918;BME280;22011;59.912;30.300;2023-02-17T07:26:10;101270.22;;;-1.68;65.86
35918;BME280;22011;59.912;30.300;2023-02-17T07:28:39;101265.06;;;-1.70;66.76
35918;BME280;22011;59.912;30.300;2023-02-17T07:31:08;101268.53;;;-1.69;66.04
35918;BME280;22011;59.912;30.300;2023-02-17T07:33:36;101264.00;;;-1.66;66.32
35918;BME280;22011;59.912;30.300;2023-02-17T07:36:05;101259.31;;;-1.59;66.46
35918;BME280;22011;59.912;30.300;2023-02-17T07:38:35;101259.41;;;-1.60;66.04
35918;BME280;22011;59.912;30.300;2023-02-17T07:41:04;101260.16;;;-1.58;66.78
35918;BME280;22011;59.912;30.300;2023-02-17T07:43:32;101261.38;;;-1.66;65.96
35918;BME280;22011;59.912;30.300;2023-02-17T07:45:59;101260.00;;;-1.73;66.09
35918;BME280;22011;59.912;30.300;2023-02-17T07:48:27;101255.69;;;-1.74;66.50
35918;BME280;22011;59.912;30.300;2023-02-17T07:50:54;101244.31;;;-1.73;66.13
35918;BME280;22011;59.912;30.300;2023-02-17T07:53:22;101246.84;;;-1.71;66.24
35918;BME280;22011;59.912;30.300;2023-02-17T07:55:51;101250.88;;;-1.64;66.30
35918;BME280;22011;59.912;30.300;2023-02-17T07:58:19;101242.19;;;-1.65;66.33
35918;BME280;22011;59.912;30.300;2023-02-17T08:00:46;101243.56;;;-1.57;66.50
35918;BME280;22011;59.912;30.300;2023-02-17T08:03:14;101250.88;;;-1.47;67.31
35918;BME280;22011;59.912;30.300;2023-02-17T08:05:41;101245.19;;;-1.38;67.35
35918;BME280;22011;59.912;30.300;2023-02-17T08:08:09;101243.50;;;-1.39;66.65
35918;BME280;22011;59.912;30.300;2023-02-17T08:10:59;101245.41;;;-1.25;67.37
35918;BME280;22011;59.912;30.300;2023-02-17T08:13:44;101231.72;;;-1.30;66.04
35918;BME280;22011;59.912;30.300;2023-02-17T08:16:12;101230.72;;;-1.27;65.69
35918;BME280;22011;59.912;30.300;2023-02-17T08:18:39;101239.50;;;-1.28;65.80
35918;BME280;22011;59.912;30.300;2023-02-17T08:21:07;101232.97;;;-1.37;66.53
35918;BME280;22011;59.912;30.300;2023-02-17T08:23:34;101235.50;;;-1.36;66.88
35918;BME280;22011;59.912;30.300;2023-02-17T08:26:03;101229.97;;;-1.29;67.26
35918;BME280;22011;59.912;30.300;2023-02-17T08:28:31;101227.44;;;-1.31;66.63
35918;BME280;22011;59.912;30.300;2023-02-17T08:30:59;101218.91;;;-1.35;66.48
35918;BME280;22011;59.912;30.300;2023-02-17T08:33:27;101214.34;;;-1.31;66.19
35918;BME280;22011;59.912;30.300;2023-02-17T08:35:55;101211.50;;;-1.26;67.30
35918;BME280;22011;59.912;30.300;2023-02-17T08:38:22;101208.66;;;-1.22;66.56
35918;BME280;22011;59.912;30.300;2023-02-17T08:40:52;101209.41;;;-1.20;65.42
35918;BME280;22011;59.912;30.300;2023-02-17T08:43:20;101200.34;;;-1.13;66.11
35918;BME280;22011;59.912;30.300;2023-02-17T08:45:48;101209.25;;;-1.17;65.66
35918;BME280;22011;59.912;30.300;2023-02-17T08:48:15;101210.13;;;-1.16;65.40
35918;BME280;22011;59.912;30.300;2023-02-17T08:50:46;101203.88;;;-1.14;66.29
35918;BME280;22011;59.912;30.300;2023-02-17T08:53:14;101204.13;;;-1.18;65.02
35918;BME280;22011;59.912;30.300;2023-02-17T08:55:42;101195.34;;;-1.17;65.54
35918;BME280;22011;59.912;30.300;2023-02-17T08:58:09;101190.81;;;-1.14;65.45
35918;BME280;22011;59.912;30.300;2023-02-17T09:00:38;101194.72;;;-1.05;64.96
35918;BME280;22011;59.912;30.300;2023-02-17T09:03:05;101196.47;;;-1.06;64.38
35918;BME280;22011;59.912;30.300;2023-02-17T09:05:33;101191.41;;;-1.09;65.01
35918;BME280;22011;59.912;30.300;2023-02-17T09:08:01;101186.41;;;-1.13;66.16
35918;BME280;22011;59.912;30.300;2023-02-17T09:10:29;101187.03;;;-1.08;66.15
35918;BME280;22011;59.912;30.300;2023-02-17T09:12:56;101189.97;;;-0.99;65.38
35918;BME280;22011;59.912;30.300;2023-02-17T09:15:24;101186.25;;;-0.94;65.12
35918;BME280;22011;59.912;30.300;2023-02-17T09:17:53;101187.63;;;-0.87;64.86
35918;BME280;22011;59.912;30.300;2023-02-17T09:20:20;101188.28;;;-1.00;64.48
35918;BME280;22011;59.912;30.300;2023-02-17T09:22:48;101181.34;;;-1.01;64.80
35918;BME280;22011;59.912;30.300;2023-02-17T09:25:15;101182.56;;;-1.06;65.55
35918;BME280;22011;59.912;30.300;2023-02-17T09:27:43;101172.75;;;-1.03;65.83
35918;BME280;22011;59.912;30.300;2023-02-17T09:30:11;101186.66;;;-1.02;65.66
35918;BME280;22011;59.912;30.300;2023-02-17T09:32:40;101178.59;;;-0.98;65.87
35918;BME280;22011;59.912;30.300;2023-02-17T09:35:10;101173.03;;;-0.91;65.63
35918;BME280;22011;59.912;30.300;2023-02-17T09:37:38;101170.81;;;-0.99;65.20
35918;BME280;22011;59.912;30.300;2023-02-17T09:40:06;101168.13;;;-0.98;66.20
35918;BME280;22011;59.912;30.300;2023-02-17T09:42:38;101171.41;;;-0.94;66.12
35918;BME280;22011;59.912;30.300;2023-02-17T09:45:09;101158.50;;;-0.97;66.38
35918;BME280;22011;59.912;30.300;2023-02-17T09:47:39;101167.97;;;-0.94;65.78
35918;BME280;22011;59.912;30.300;2023-02-17T09:50:13;101159.19;;;-0.93;65.94
35918;BME280;22011;59.912;30.300;2023-02-17T09:52:45;101164.56;;;-0.96;66.29
35918;BME280;22011;59.912;30.300;2023-02-17T09:55:22;101156.66;;;-0.95;65.60
35918;BME280;22011;59.912;30.300;2023-02-17T09:57:55;101155.19;;;-1.01;65.49
35918;BME280;22011;59.912;30.300;2023-02-17T10:00:25;101142.22;;;-1.02;65.25
35918;BME280;22011;59.912;30.300;2023-02-17T10:02:58;101133.28;;;-0.98;65.21
35918;BME280;22011;59.912;30.300;2023-02-17T10:05:34;101140.19;;;-0.97;65.54
35918;BME280;22011;59.912;30.300;2023-02-17T10:08:07;101146.28;;;-0.96;65.50
35918;BME280;22011;59.912;30.300;2023-02-17T10:10:40;101141.88;;;-0.96;65.26
35918;BME280;22011;59.912;30.300;2023-02-17T10:13:12;101152.34;;;-0.96;66.20
35918;BME280;22011;59.912;30.300;2023-02-17T10:15:44;101144.41;;;-0.94;65.63
35918;BME280;22011;59.912;30.300;2023-02-17T10:18:17;101136.31;;;-0.90;66.10
35918;BME280;22011;59.912;30.300;2023-02-17T10:20:51;101129.91;;;-0.84;66.45
35918;BME280;22011;59.912;30.300;2023-02-17T10:23:24;101121.13;;;-0.83;65.52
35918;BME280;22011;59.912;30.300;2023-02-17T10:28:49;101110.16;;;-0.74;64.34
35918;BME280;22011;59.912;30.300;2023-02-17T10:31:30;101111.00;;;-0.58;64.68
35918;BME280;22011;59.912;30.300;2023-02-17T10:34:04;101108.47;;;-0.75;64.92
35918;BME280;22011;59.912;30.300;2023-02-17T10:36:47;101101.38;;;-0.73;65.73
35918;BME280;22011;59.912;30.300;2023-02-17T10:39:29;101110.69;;;-0.68;66.07
35918;BME280;22011;59.912;30.300;2023-02-17T10:42:00;101095.31;;;-0.74;64.81
35918;BME280;22011;59.912;30.300;2023-02-17T10:44:29;101096.16;;;-0.73;64.24
35918;BME280;22011;59.912;30.300;2023-02-17T10:47:00;101094.31;;;-0.71;64.86
35918;BME280;22011;59.912;30.300;2023-02-17T10:49:34;101094.81;;;-0.64;64.68
35918;BME280;22011;59.912;30.300;2023-02-17T10:52:11;101090.06;;;-0.58;64.67
35918;BME280;22011;59.912;30.300;2023-02-17T10:54:45;101090.31;;;-0.62;65.50
35918;BME280;22011;59.912;30.300;2023-02-17T10:57:15;101097.69;;;-0.69;64.87
35918;BME280;22011;59.912;30.300;2023-02-17T10:59:45;101093.72;;;-0.76;65.32
35918;BME280;22011;59.912;30.300;2023-02-17T11:02:16;101094.06;;;-0.82;66.07
35918;BME280;22011;59.912;30.300;2023-02-17T11:04:46;101091.53;;;-0.84;65.67
35918;BME280;22011;59.912;30.300;2023-02-17T11:07:16;101092.19;;;-0.80;65.49
35918;BME280;22011;59.912;30.300;2023-02-17T11:09:46;101091.09;;;-0.76;65.38
35918;BME280;22011;59.912;30.300;2023-02-17T11:12:17;101089.25;;;-0.74;65.59
35918;BME280;22011;59.912;30.300;2023-02-17T11:14:48;101094.47;;;-0.74;66.49
35918;BME280;22011;59.912;30.300;2023-02-17T11:17:22;101088.41;;;-0.75;66.38
35918;BME280;22011;59.912;30.300;2023-02-17T11:19:59;101078.44;;;-0.68;65.92
35918;BME280;22011;59.912;30.300;2023-02-17T11:22:33;101078.44;;;-0.68;65.25
35918;BME280;22011;59.912;30.300;2023-02-17T11:25:06;101080.47;;;-0.73;65.29
35918;BME280;22011;59.912;30.300;2023-02-17T11:27:34;101074.56;;;-0.77;65.61
35918;BME280;22011;59.912;30.300;2023-02-17T11:30:08;101084.41;;;-0.66;66.04
35918;BME280;22011;59.912;30.300;2023-02-17T11:32:40;101078.78;;;-0.74;65.37
35918;BME280;22011;59.912;30.300;2023-02-17T11:35:21;101072.84;;;-0.62;66.37
35918;BME280;22011;59.912;30.300;2023-02-17T11:37:51;101065.44;;;-0.70;66.71
35918;BME280;22011;59.912;30.300;2023-02-17T11:40:24;101072.84;;;-0.62;67.02
35918;BME280;22011;59.912;30.300;2023-02-17T11:42:58;101062.38;;;-0.62;67.01
35918;BME280;22011;59.912;30.300;2023-02-17T11:45:30;101056.06;;;-0.58;66.63
35918;BME280;22011;59.912;30.300;2023-02-17T11:48:25;101060.00;;;-0.51;66.18
35918;BME280;22011;59.912;30.300;2023-02-17T11:51:01;101049.72;;;-0.54;66.42
35918;BME280;22011;59.912;30.300;2023-02-17T11:53:45;101069.53;;;-0.50;67.20
35918;BME280;22011;59.912;30.300;2023-02-17T11:56:16;101051.91;;;-0.62;65.89
35918;BME280;22011;59.912;30.300;2023-02-17T11:59:08;101037.56;;;-0.55;67.01
35918;BME280;22011;59.912;30.300;2023-02-17T12:01:51;101038.56;;;-0.57;66.38
35918;BME280;22011;59.912;30.300;2023-02-17T12:04:25;101029.47;;;-0.66;65.92
35918;BME280;22011;59.912;30.300;2023-02-17T12:07:13;101022.97;;;-0.59;67.06
35918;BME280;22011;59.912;30.300;2023-02-17T12:09:50;101029.38;;;-0.64;66.74
35918;BME280;22011;59.912;30.300;2023-02-17T12:12:26;101015.28;;;-0.62;66.49
35918;BME280;22011;59.912;30.300;2023-02-17T12:15:05;101015.03;;;-0.57;67.16
35918;BME280;22011;59.912;30.300;2023-02-17T12:17:41;101016.34;;;-0.50;67.04
35918;BME280;22011;59.912;30.300;2023-02-17T12:20:27;101017.25;;;-0.36;66.62
35918;BME280;22011;59.912;30.300;2023-02-17T12:23:05;101005.75;;;-0.33;67.39
35918;BME280;22011;59.912;30.300;2023-02-17T12:25:40;101008.47;;;-0.35;66.34
35918;BME280;22011;59.912;30.300;2023-02-17T12:28:33;101005.94;;;-0.36;66.11
35918;BME280;22011;59.912;30.300;2023-02-17T12:31:11;100997.94;;;-0.49;66.31
35918;BME280;22011;59.912;30.300;2023-02-17T12:33:53;100998.69;;;-0.47;66.63
35918;BME280;22011;59.912;30.300;2023-02-17T12:36:28;100993.63;;;-0.50;66.98
35918;BME280;22011;59.912;30.300;2023-02-17T12:38:59;100987.75;;;-0.53;66.43
35918;BME280;22011;59.912;30.300;2023-02-17T12:41:33;100985.88;;;-0.51;66.42
35918;BME280;22011;59.912;30.300;2023-02-17T12:44:05;100987.06;;;-0.57;66.37
35918;BME280;22011;59.912;30.300;2023-02-17T12:46:41;100981.25;;;-0.62;66.50
35918;BME280;22011;59.912;30.300;2023-02-17T12:49:12;100976.97;;;-0.63;66.17
35918;BME280;22011;59.912;30.300;2023-02-17T12:51:43;100975.38;;;-0.66;66.71
35918;BME280;22011;59.912;30.300;2023-02-17T12:54:16;100972.84;;;-0.67;66.67
35918;BME280;22011;59.912;30.300;2023-02-17T12:56:55;100977.72;;;-0.61;67.03
35918;BME280;22011;59.912;30.300;2023-02-17T12:59:30;100973.59;;;-0.65;66.70
35918;BME280;22011;59.912;30.300;2023-02-17T13:02:00;100969.97;;;-0.62;67.18
35918;BME280;22011;59.912;30.300;2023-02-17T13:04:30;100962.94;;;-0.62;67.00